createdAt,value
2018-05-21T00:00:01.314Z,84.72
2018-05-21T00:02:30.535Z,84.87
2018-05-21T00:04:59.739Z,85.04
2018-05-21T00:07:28.206Z,85.33
2018-05-21T00:09:57.410Z,85.55
2018-05-21T00:12:26.667Z,85.79
2018-05-21T00:14:55.124Z,85.79
2018-05-21T00:17:23.520Z,86.04
2018-05-21T00:19:51.962Z,86.20
2018-05-21T00:22:21.180Z,86.70
2018-05-21T00:24:50.376Z,86.79
2018-05-21T00:27:19.586Z,86.75
2018-05-21T00:29:48.790Z,86.89
2018-05-21T00:32:17.972Z,87.20
2018-05-21T00:34:47.189Z,87.03
2018-05-21T00:37:16.373Z,87.06
2018-05-21T00:39:44.807Z,86.84
2018-05-21T00:42:13.299Z,87.11
2018-05-21T00:44:41.741Z,86.83
2018-05-21T00:47:10.912Z,86.97
2018-05-21T00:49:39.342Z,86.58
2018-05-21T00:52:07.743Z,87.13
2018-05-21T00:54:36.188Z,87.14
2018-05-21T00:57:05.369Z,87.25
2018-05-21T00:59:33.810Z,87.38
2018-05-21T01:02:02.224Z,87.46
2018-05-21T01:04:30.631Z,87.64
2018-05-21T01:06:59.069Z,87.74
2018-05-21T01:09:28.241Z,87.91
2018-05-21T01:11:57.434Z,87.57
2018-05-21T01:14:26.607Z,87.88
2018-05-21T01:16:55.099Z,88.31
2018-05-21T01:19:23.491Z,87.85
2018-05-21T01:21:51.927Z,87.45
2018-05-21T01:24:20.320Z,87.10
2018-05-21T01:26:48.756Z,86.99
2018-05-21T01:29:17.923Z,86.85
2018-05-21T01:31:46.372Z,86.49
2018-05-21T01:34:14.781Z,86.59
2018-05-21T01:36:43.218Z,86.69
2018-05-21T01:39:11.629Z,86.75
2018-05-21T01:41:40.059Z,87.08
2018-05-21T01:44:08.459Z,87.22
2018-05-21T01:46:37.663Z,87.17
2018-05-21T01:49:06.054Z,87.15
2018-05-21T01:51:34.488Z,87.02
2018-05-21T01:54:02.894Z,87.59
2018-05-21T01:56:31.330Z,87.31
2018-05-21T01:58:59.726Z,87.70
2018-05-21T02:01:28.155Z,87.44
2018-05-21T02:03:56.558Z,87.48
2018-05-21T02:06:25.021Z,86.97
2018-05-21T02:08:54.216Z,87.03
2018-05-21T02:11:22.676Z,86.62
2018-05-21T02:13:51.104Z,86.69
2018-05-21T02:16:20.328Z,87.13
2018-05-21T02:18:48.746Z,87.00
2018-05-21T02:21:17.198Z,86.50
2018-05-21T02:23:45.621Z,84.92
2018-05-21T02:26:14.066Z,84.10
2018-05-21T02:28:42.486Z,82.94
2018-05-21T02:31:10.942Z,82.26
2018-05-21T02:33:39.356Z,82.57
2018-05-21T02:36:07.795Z,81.55
2018-05-21T02:38:36.232Z,80.73
2018-05-21T02:41:04.695Z,79.66
2018-05-21T02:43:33.112Z,78.80
2018-05-21T02:46:01.565Z,78.19
2018-05-21T02:48:30.739Z,77.01
2018-05-21T02:50:59.165Z,77.74
2018-05-21T02:53:27.568Z,78.30
2018-05-21T02:55:55.975Z,77.88
2018-05-21T02:58:25.179Z,76.68
2018-05-21T03:00:54.342Z,75.80
2018-05-21T03:03:22.784Z,74.95
2018-05-21T03:05:51.175Z,74.43
2018-05-21T03:08:19.598Z,73.88
2018-05-21T03:10:47.997Z,73.29
2018-05-21T03:13:16.440Z,73.05
2018-05-21T03:15:44.839Z,72.70
2018-05-21T03:18:13.262Z,72.36
2018-05-21T03:20:42.438Z,72.46
2018-05-21T03:23:10.868Z,73.09
2018-05-21T03:25:39.260Z,73.75
2018-05-21T03:28:07.690Z,73.00
2018-05-21T03:30:36.108Z,73.00
2018-05-21T03:33:05.303Z,72.76
2018-05-21T03:35:34.476Z,72.90
2018-05-21T03:38:02.903Z,72.91
2018-05-21T03:40:31.312Z,73.61
2018-05-21T03:42:59.747Z,74.58
2018-05-21T03:45:28.142Z,74.52
2018-05-21T03:47:57.340Z,74.00
2018-05-21T03:50:25.755Z,73.70
2018-05-21T03:52:54.199Z,74.41
2018-05-21T03:55:22.600Z,73.90
2018-05-21T03:57:51.798Z,74.03
2018-05-21T04:00:38.708Z,73.99
2018-05-21T04:06:19.362Z,75.09
2018-05-21T04:08:48.550Z,74.52
2018-05-21T04:11:16.940Z,74.46
2018-05-21T04:13:45.382Z,74.07
2018-05-21T04:16:13.796Z,73.47
2018-05-21T04:18:43.008Z,73.42
2018-05-21T04:21:11.420Z,73.56
2018-05-21T04:23:39.859Z,73.83
2018-05-21T04:26:08.269Z,73.18
2018-05-21T04:28:37.461Z,73.52
2018-05-21T04:31:05.867Z,73.79
2018-05-21T04:33:35.054Z,72.68
2018-05-21T04:36:04.234Z,72.07
2018-05-21T04:38:32.674Z,72.84
2018-05-21T04:41:01.077Z,71.63
2018-05-21T04:43:29.499Z,72.62
2018-05-21T04:45:57.905Z,72.77
2018-05-21T04:48:26.335Z,71.28
2018-05-21T04:50:54.743Z,70.72
2018-05-21T04:53:23.176Z,71.45
2018-05-21T04:55:51.592Z,70.68
2018-05-21T04:58:20.014Z,69.49
2018-05-21T05:00:49.189Z,70.47
2018-05-21T05:03:17.622Z,69.01
2018-05-21T05:05:46.023Z,70.70
2018-05-21T05:08:14.449Z,69.70
2018-05-21T05:10:42.875Z,69.67
2018-05-21T05:13:11.302Z,69.18
2018-05-21T05:15:39.703Z,70.44
2018-05-21T05:18:08.142Z,70.13
2018-05-21T05:20:36.536Z,69.19
2018-05-21T05:23:04.954Z,68.98
2018-05-21T05:25:33.356Z,67.95
2018-05-21T05:28:02.554Z,67.11
2018-05-21T05:30:31.717Z,66.99
2018-05-21T05:33:00.156Z,66.06
2018-05-21T05:35:28.555Z,66.45
2018-05-21T05:37:56.946Z,67.60
2018-05-21T05:40:25.387Z,66.74
2018-05-21T05:42:53.784Z,67.52
2018-05-21T05:45:22.964Z,66.74
2018-05-21T05:47:51.362Z,66.49
2018-05-21T05:50:20.554Z,65.48
2018-05-21T05:52:48.971Z,68.12
2018-05-21T05:55:17.410Z,68.18
2018-05-21T05:57:45.806Z,67.27
2018-05-21T06:00:15.024Z,67.37
2018-05-21T06:02:44.197Z,68.73
2018-05-21T06:05:12.631Z,67.90
2018-05-21T06:07:41.059Z,68.47
2018-05-21T06:10:09.528Z,68.53
2018-05-21T06:12:37.930Z,66.33
2018-05-21T06:15:06.357Z,66.88
2018-05-21T06:17:34.756Z,66.56
2018-05-21T06:20:03.213Z,65.02
2018-05-21T06:22:32.410Z,64.76
2018-05-21T06:25:01.603Z,66.79
2018-05-21T06:27:30.058Z,64.19
2018-05-21T06:29:58.486Z,63.78
2018-05-21T06:32:27.723Z,64.31
2018-05-21T06:34:56.191Z,63.98
2018-05-21T06:37:24.603Z,64.25
2018-05-21T06:39:53.035Z,67.77
2018-05-21T06:42:22.212Z,65.61
2018-05-21T06:44:50.666Z,66.06
2018-05-21T06:47:19.114Z,66.67
2018-05-21T06:49:48.336Z,64.17
2018-05-21T06:52:16.734Z,65.42
2018-05-21T06:54:45.166Z,66.06
2018-05-21T06:57:13.575Z,65.66
2018-05-21T06:59:42.037Z,64.46
2018-05-21T07:02:10.418Z,63.55
2018-05-21T07:04:38.875Z,66.00
2018-05-21T07:07:07.275Z,66.01
2018-05-21T07:09:35.716Z,67.08
2018-05-21T07:12:04.118Z,65.88
2018-05-21T07:14:32.546Z,64.63
2018-05-21T07:17:00.954Z,66.74
2018-05-21T07:19:29.380Z,64.50
2018-05-21T07:21:57.773Z,65.09
2018-05-21T07:24:26.216Z,65.42
2018-05-21T07:26:54.619Z,63.85
2018-05-21T07:29:23.064Z,61.21
2018-05-21T07:31:52.226Z,63.26
2018-05-21T07:34:20.654Z,63.60
2018-05-21T07:36:49.063Z,61.59
2018-05-21T07:39:17.457Z,64.70
2018-05-21T07:41:45.910Z,60.92
2018-05-21T07:44:14.311Z,64.54
2018-05-21T07:46:42.747Z,60.04
2018-05-21T07:49:11.152Z,60.19
2018-05-21T07:51:39.635Z,64.59
2018-05-21T07:54:07.994Z,62.67
2018-05-21T07:56:36.441Z,61.40
2018-05-21T07:59:04.845Z,60.69
2018-05-21T08:01:33.284Z,62.75
2018-05-21T08:04:01.690Z,61.74
2018-05-21T08:06:30.111Z,61.98
2018-05-21T08:08:58.520Z,60.84
2018-05-21T08:11:27.727Z,59.61
2018-05-21T08:13:56.889Z,61.63
2018-05-21T08:16:25.332Z,60.21
2018-05-21T08:18:53.747Z,62.95
2018-05-21T08:21:22.179Z,61.29
2018-05-21T08:23:51.342Z,61.95
2018-05-21T08:26:19.774Z,62.44
2018-05-21T08:28:48.188Z,61.67
2018-05-21T08:31:16.626Z,64.03
2018-05-21T08:33:45.795Z,62.37
2018-05-21T08:36:14.219Z,58.55
2018-05-21T08:38:43.390Z,61.82
2018-05-21T08:41:11.833Z,58.24
2018-05-21T08:43:40.246Z,62.19
2018-05-21T08:46:08.678Z,61.35
2018-05-21T08:48:37.124Z,59.50
2018-05-21T08:51:05.618Z,62.00
2018-05-21T08:53:34.078Z,62.10
2018-05-21T08:56:02.554Z,58.13
2018-05-21T08:58:30.973Z,56.54
2018-05-21T09:00:59.434Z,56.17
2018-05-21T09:03:27.859Z,56.75
2018-05-21T09:05:56.332Z,54.45
2018-05-21T09:08:24.816Z,58.29
2018-05-21T09:10:54.045Z,54.83
2018-05-21T09:13:22.467Z,57.45
2018-05-21T09:15:50.931Z,55.96
2018-05-21T09:18:19.359Z,55.42
2018-05-21T09:20:47.833Z,60.06
2018-05-21T09:23:16.335Z,56.58
2018-05-21T09:25:44.793Z,55.42
2018-05-21T09:28:13.249Z,54.24
2018-05-21T09:30:41.725Z,58.10
2018-05-21T09:33:10.140Z,58.12
2018-05-21T09:35:38.607Z,57.57
2018-05-21T09:38:07.043Z,53.90
2018-05-21T09:40:35.466Z,55.36
2018-05-21T09:43:03.924Z,52.29
2018-05-21T09:45:33.108Z,52.88
2018-05-21T09:48:01.561Z,55.54
2018-05-21T09:50:29.994Z,55.37
2018-05-21T09:52:59.234Z,54.18
2018-05-21T09:55:27.676Z,57.45
2018-05-21T09:57:56.122Z,52.67
2018-05-21T10:00:24.543Z,53.28
2018-05-21T10:02:53.763Z,54.63
2018-05-21T10:05:22.978Z,56.07
2018-05-21T10:07:51.470Z,55.73
2018-05-21T10:10:19.905Z,54.59
2018-05-21T10:12:48.337Z,55.81
2018-05-21T10:15:16.835Z,53.09
2018-05-21T10:17:45.447Z,54.47
2018-05-21T10:20:13.859Z,54.52
2018-05-21T10:22:42.310Z,56.13
2018-05-21T10:25:10.709Z,57.44
2018-05-21T10:27:39.135Z,55.43
2018-05-21T10:30:08.372Z,51.25
2018-05-21T10:32:36.830Z,52.00
2018-05-21T10:35:05.241Z,56.10
2018-05-21T10:37:33.670Z,53.05
2018-05-21T10:40:02.154Z,52.96
2018-05-21T10:42:30.601Z,47.88
2018-05-21T10:44:59.036Z,48.72
2018-05-21T10:47:28.269Z,57.52
2018-05-21T10:49:56.690Z,51.65
2018-05-21T10:52:25.182Z,50.38
2018-05-21T10:54:53.585Z,45.77
2018-05-21T10:57:22.872Z,48.77
2018-05-21T10:59:51.286Z,52.19
2018-05-21T11:02:19.804Z,51.31
2018-05-21T11:04:48.245Z,47.67
2018-05-21T11:07:17.512Z,54.39
2018-05-21T11:09:45.930Z,53.17
2018-05-21T11:12:15.230Z,52.91
2018-05-21T11:14:43.610Z,54.60
2018-05-21T11:17:12.135Z,52.50
2018-05-21T11:19:41.323Z,54.27
2018-05-21T11:22:10.556Z,55.61
2018-05-21T11:24:39.048Z,49.45
2018-05-21T11:27:07.404Z,52.12
2018-05-21T11:29:35.803Z,48.42
2018-05-21T11:32:04.315Z,53.53
2018-05-21T11:34:33.490Z,54.55
2018-05-21T11:37:01.939Z,48.86
2018-05-21T11:39:31.135Z,51.91
2018-05-21T11:42:00.360Z,51.11
2018-05-21T11:44:28.793Z,49.58
2018-05-21T11:46:57.272Z,54.13
2018-05-21T11:49:25.713Z,49.67
2018-05-21T11:51:54.131Z,54.12
2018-05-21T11:54:22.580Z,53.62
2018-05-21T11:56:51.018Z,50.62
2018-05-21T11:59:19.483Z,51.11
2018-05-21T12:01:47.898Z,51.55
2018-05-21T12:04:16.368Z,48.34
2018-05-21T12:06:44.775Z,45.97
2018-05-21T12:09:13.220Z,48.51
2018-05-21T12:11:41.648Z,48.50
2018-05-21T12:14:10.865Z,50.21
2018-05-21T12:16:40.058Z,48.96
2018-05-21T12:19:09.291Z,49.26
2018-05-21T12:21:37.717Z,45.67
2018-05-21T12:24:06.170Z,49.27
2018-05-21T12:26:34.596Z,51.01
2018-05-21T12:29:03.103Z,51.29
2018-05-21T12:31:32.286Z,48.74
2018-05-21T12:34:00.739Z,52.49
2018-05-21T12:36:29.158Z,48.97
2018-05-21T12:38:58.379Z,51.66
2018-05-21T12:41:26.807Z,53.11
2018-05-21T12:43:55.272Z,52.06
2018-05-21T12:46:23.693Z,55.02
2018-05-21T12:48:52.160Z,53.22
2018-05-21T12:51:20.587Z,54.11
2018-05-21T12:53:49.024Z,53.21
2018-05-21T12:56:17.452Z,53.80
2018-05-21T12:58:45.905Z,53.76
2018-05-21T13:01:14.325Z,50.92
2018-05-21T13:03:43.587Z,52.18
2018-05-21T13:06:12.000Z,52.12
2018-05-21T13:08:40.457Z,51.21
2018-05-21T13:11:08.903Z,53.57
2018-05-21T13:13:37.459Z,52.23
2018-05-21T13:16:05.892Z,52.85
2018-05-21T13:18:34.357Z,53.72
2018-05-21T13:21:03.575Z,53.36
2018-05-21T13:23:32.032Z,54.22
2018-05-21T13:26:01.256Z,53.89
2018-05-21T13:28:29.710Z,52.87
2018-05-21T13:30:58.115Z,54.65
2018-05-21T13:33:26.569Z,52.98
2018-05-21T13:35:54.983Z,51.33
2018-05-21T13:38:23.463Z,52.79
2018-05-21T13:40:52.675Z,53.39
2018-05-21T13:43:21.106Z,54.52
2018-05-21T13:45:49.564Z,52.13
2018-05-21T13:48:18.004Z,54.16
2018-05-21T13:50:47.225Z,52.43
2018-05-21T13:53:16.408Z,53.84
2018-05-21T13:55:46.571Z,51.18
2018-05-21T13:58:14.988Z,53.17
2018-05-21T14:00:43.425Z,53.06
2018-05-21T14:03:11.843Z,53.63
2018-05-21T14:05:40.296Z,53.03
2018-05-21T14:08:08.749Z,52.93
2018-05-21T14:10:37.219Z,52.10
2018-05-21T14:13:05.648Z,53.03
2018-05-21T14:15:34.104Z,53.03
2018-05-21T14:18:02.515Z,55.36
2018-05-21T14:20:30.971Z,57.17
2018-05-21T14:22:59.393Z,54.87
2018-05-21T14:25:27.935Z,56.23
2018-05-21T14:27:56.285Z,54.77
2018-05-21T14:30:24.755Z,55.31
2018-05-21T14:32:53.187Z,55.43
2018-05-21T14:35:21.642Z,53.88
2018-05-21T14:37:50.058Z,55.23
2018-05-21T14:40:18.522Z,56.35
2018-05-21T14:42:46.949Z,55.27
2018-05-21T14:45:15.424Z,57.34
2018-05-21T14:47:44.635Z,56.36
2018-05-21T14:50:13.857Z,56.74
2018-05-21T14:52:42.271Z,56.93
2018-05-21T14:55:10.730Z,57.99
2018-05-21T14:57:39.156Z,60.99
2018-05-21T15:00:07.631Z,56.98
2018-05-21T15:02:36.139Z,56.25
2018-05-21T15:05:04.630Z,55.90
2018-05-21T15:07:33.127Z,55.50
2018-05-21T15:10:02.386Z,56.79
2018-05-21T15:12:30.945Z,56.86
2018-05-21T15:14:59.369Z,55.86
2018-05-21T15:17:27.906Z,56.92
2018-05-21T15:19:56.335Z,54.28
2018-05-21T15:22:24.848Z,57.18
2018-05-21T15:24:53.290Z,55.18
2018-05-21T15:27:21.813Z,54.40
2018-05-21T15:29:50.233Z,55.42
2018-05-21T15:32:18.724Z,55.68
2018-05-21T15:34:47.165Z,57.06
2018-05-21T15:37:15.679Z,57.63
2018-05-21T15:39:44.092Z,58.30
2018-05-21T15:42:12.602Z,57.05
2018-05-21T15:44:41.036Z,55.51
2018-05-21T15:47:09.596Z,55.77
2018-05-21T15:49:38.017Z,56.45
2018-05-21T15:52:06.485Z,53.59
2018-05-21T15:54:35.672Z,55.24
2018-05-21T15:57:04.136Z,56.72
2018-05-21T15:59:32.568Z,55.19
2018-05-21T16:02:01.007Z,56.10
2018-05-21T16:04:29.428Z,55.42
2018-05-21T16:06:58.669Z,56.80
2018-05-21T16:09:27.125Z,57.24
2018-05-21T16:11:55.615Z,56.94
2018-05-21T16:14:24.059Z,57.43
2018-05-21T16:16:52.523Z,58.38
2018-05-21T16:19:20.948Z,57.76
2018-05-21T16:21:50.177Z,57.02
2018-05-21T16:24:18.579Z,55.36
2018-05-21T16:26:47.044Z,56.11
2018-05-21T16:29:15.491Z,57.75
2018-05-21T16:31:43.922Z,55.82
2018-05-21T16:34:12.332Z,55.87
2018-05-21T16:36:40.808Z,54.42
2018-05-21T16:39:09.225Z,53.44
2018-05-21T16:41:37.700Z,54.74
2018-05-21T16:44:06.136Z,55.62
2018-05-21T16:46:34.594Z,53.80
2018-05-21T16:49:03.829Z,54.92
2018-05-21T16:51:32.289Z,54.32
2018-05-21T16:54:01.495Z,55.04
2018-05-21T16:56:30.707Z,55.00
2018-05-21T16:58:59.156Z,55.26
2018-05-21T17:01:27.628Z,56.13
2018-05-21T17:03:56.063Z,56.15
2018-05-21T17:06:24.518Z,55.62
2018-05-21T17:08:52.950Z,56.03
2018-05-21T17:11:21.449Z,55.74
2018-05-21T17:13:49.898Z,56.46
2018-05-21T17:16:18.354Z,56.97
2018-05-21T17:18:46.824Z,57.22
2018-05-21T17:21:15.275Z,57.34
2018-05-21T17:23:43.730Z,57.23
2018-05-21T17:26:12.172Z,57.57
2018-05-21T17:28:40.653Z,58.41
2018-05-21T17:31:09.129Z,57.91
2018-05-21T17:33:37.590Z,57.74
2018-05-21T17:36:06.020Z,57.91
2018-05-21T17:38:34.470Z,58.12
2018-05-21T17:41:02.903Z,57.92
2018-05-21T17:43:32.180Z,57.72
2018-05-21T17:46:00.649Z,57.79
2018-05-21T17:48:29.114Z,57.50
2018-05-21T17:50:57.564Z,57.22
2018-05-21T17:53:26.810Z,57.85
2018-05-21T17:55:55.254Z,58.17
2018-05-21T17:58:24.472Z,58.29
2018-05-21T18:00:52.923Z,58.84
2018-05-21T18:03:21.397Z,59.33
2018-05-21T18:05:49.824Z,60.19
2018-05-21T18:08:19.059Z,60.37
2018-05-21T18:10:47.499Z,60.86
2018-05-21T18:13:16.740Z,60.76
2018-05-21T18:15:45.180Z,60.70
2018-05-21T18:18:14.407Z,60.87
2018-05-21T18:20:42.832Z,61.56
2018-05-21T18:23:11.337Z,62.29
2018-05-21T18:25:39.796Z,62.74
2018-05-21T18:28:08.261Z,63.26
2018-05-21T18:30:36.721Z,63.92
2018-05-21T18:33:06.036Z,64.09
2018-05-21T18:35:34.520Z,64.07
2018-05-21T18:38:02.958Z,64.21
2018-05-21T18:40:31.412Z,64.35
2018-05-21T18:42:59.868Z,64.53
2018-05-21T18:45:29.100Z,64.79
2018-05-21T18:47:57.555Z,65.29
2018-05-21T18:50:26.764Z,65.80
2018-05-21T18:52:55.207Z,66.12
2018-05-21T18:55:23.648Z,66.34
2018-05-21T18:57:52.138Z,66.47
2018-05-21T19:00:20.571Z,66.71
2018-05-21T19:02:48.991Z,66.87
2018-05-21T19:05:17.459Z,67.46
2018-05-21T19:07:46.728Z,67.81
2018-05-21T19:10:15.179Z,68.33
2018-05-21T19:12:43.590Z,68.65
2018-05-21T19:15:12.074Z,69.07
2018-05-21T19:17:40.488Z,69.26
2018-05-21T19:20:08.944Z,69.79
2018-05-21T19:22:37.380Z,70.36
2018-05-21T19:25:06.612Z,70.50
2018-05-21T19:27:35.071Z,70.74
2018-05-21T19:30:03.881Z,70.99
2018-05-21T19:32:32.362Z,71.26
2018-05-21T19:35:00.826Z,69.60
2018-05-21T19:37:29.292Z,71.68
2018-05-21T19:39:57.734Z,68.42
2018-05-21T19:42:26.267Z,64.62
2018-05-21T19:44:54.733Z,62.60
2018-05-21T19:47:23.161Z,62.46
2018-05-21T19:49:51.623Z,62.83
2018-05-21T19:52:20.858Z,63.48
2018-05-21T19:54:49.322Z,62.62
2018-05-21T19:57:18.497Z,60.36
2018-05-21T19:59:47.035Z,58.90
2018-05-21T20:02:15.399Z,58.32
2018-05-21T20:04:43.833Z,59.23
2018-05-21T20:07:12.302Z,59.84
2018-05-21T20:09:41.034Z,60.64
2018-05-21T20:12:10.251Z,61.94
2018-05-21T20:14:39.474Z,63.33
2018-05-21T20:17:07.915Z,64.77
2018-05-21T20:19:36.472Z,64.36
2018-05-21T20:22:05.006Z,63.50
2018-05-21T20:24:34.237Z,64.20
2018-05-21T20:27:02.676Z,65.00
2018-05-21T20:29:31.137Z,66.71
2018-05-21T20:31:59.571Z,67.40
2018-05-21T20:34:28.777Z,67.70
2018-05-21T20:36:57.950Z,69.91
2018-05-21T20:39:26.391Z,68.97
2018-05-21T20:41:54.800Z,70.73
2018-05-21T20:44:23.238Z,69.47
2018-05-21T20:46:51.657Z,68.83
2018-05-21T20:49:20.103Z,70.24
2018-05-21T20:51:48.528Z,69.21
2018-05-21T20:54:16.974Z,69.83
2018-05-21T20:56:45.374Z,70.14
2018-05-21T20:59:13.766Z,70.36
2018-05-21T21:01:42.202Z,70.38
2018-05-21T21:04:11.377Z,69.67
2018-05-21T21:06:39.823Z,69.25
2018-05-21T21:09:08.243Z,68.79
2018-05-21T21:11:36.682Z,69.12
2018-05-21T21:14:05.088Z,68.96
2018-05-21T21:16:33.512Z,69.26
2018-05-21T21:19:01.919Z,67.57
2018-05-21T21:21:31.114Z,68.04
2018-05-21T21:24:00.296Z,67.35
2018-05-21T21:26:28.734Z,68.45
2018-05-21T21:28:57.126Z,68.22
2018-05-21T21:31:25.559Z,67.82
2018-05-21T21:33:53.962Z,68.23
2018-05-21T21:36:23.163Z,68.28
2018-05-21T21:38:52.335Z,67.27
2018-05-21T21:41:20.771Z,66.89
2018-05-21T21:43:49.184Z,67.24
2018-05-21T21:46:17.621Z,67.74
2018-05-21T21:48:46.791Z,68.06
2018-05-21T21:51:15.232Z,67.19
2018-05-21T21:53:43.653Z,64.66
2018-05-21T21:56:12.071Z,65.43
2018-05-21T21:58:41.244Z,66.58
2018-05-21T22:01:09.690Z,68.72
2018-05-21T22:03:38.091Z,69.55
2018-05-21T22:06:06.550Z,70.12
2018-05-21T22:08:34.945Z,70.56
2018-05-21T22:11:03.379Z,70.56
2018-05-21T22:13:32.567Z,70.63
2018-05-21T22:16:01.004Z,70.92
2018-05-21T22:18:30.207Z,71.63
2018-05-21T22:20:59.443Z,72.34
2018-05-21T22:23:27.893Z,73.10
2018-05-21T22:25:56.402Z,73.67
2018-05-21T22:28:24.872Z,73.95
2018-05-21T22:30:53.339Z,73.83
2018-05-21T22:33:21.758Z,73.86
2018-05-21T22:35:50.277Z,74.38
2018-05-21T22:38:19.520Z,74.83
2018-05-21T22:40:47.971Z,74.79
2018-05-21T22:43:16.380Z,75.19
2018-05-21T22:45:44.842Z,75.12
2018-05-21T22:48:13.260Z,75.21
2018-05-21T22:50:41.711Z,75.14
2018-05-21T22:53:10.885Z,74.94
2018-05-21T22:55:39.358Z,74.91
2018-05-21T22:58:07.786Z,75.08
2018-05-21T23:00:37.056Z,75.20
2018-05-21T23:03:05.493Z,75.33
2018-05-21T23:05:33.931Z,75.74
2018-05-21T23:08:02.420Z,75.48
2018-05-21T23:10:30.850Z,75.49
2018-05-21T23:12:59.369Z,75.11
2018-05-21T23:15:27.806Z,75.14
2018-05-21T23:17:57.042Z,75.50
2018-05-21T23:20:25.447Z,76.00
2018-05-21T23:22:53.928Z,75.79
2018-05-21T23:25:22.379Z,75.42
2018-05-21T23:27:50.839Z,75.36
2018-05-21T23:30:19.262Z,75.56
2018-05-21T23:32:47.734Z,75.50
2018-05-21T23:35:16.183Z,75.47
2018-05-21T23:37:45.435Z,75.93
2018-05-21T23:40:13.921Z,75.87
2018-05-21T23:42:42.416Z,76.11
2018-05-21T23:45:10.853Z,76.45
2018-05-21T23:47:40.132Z,76.13
2018-05-21T23:50:08.624Z,76.08
2018-05-21T23:52:37.080Z,76.04
2018-05-21T23:55:05.520Z,76.22
2018-05-21T23:57:34.005Z,75.78
